Map

Track Data

SID SEASON NUMBER BASIN SUBBASIN NAME ISO_TIME NATURE LAT LON WMO_WIND WMO_PRES WMO_AGENCY TRACK_TYPE DIST2LAND LANDFALL IFLAG USA_AGENCY USA_ATCF_ID USA_LAT USA_LON USA_RECORD USA_STATUS USA_WIND USA_PRES USA_SSHS USA_R34_NE USA_R34_SE USA_R34_SW USA_R34_NW USA_R50_NE USA_R50_SE USA_R50_SW USA_R50_NW USA_R64_NE USA_R64_SE USA_R64_SW USA_R64_NW USA_POCI USA_ROCI USA_RMW USA_EYE TOKYO_LAT TOKYO_LON TOKYO_GRADE TOKYO_WIND TOKYO_PRES TOKYO_R50_DIR TOKYO_R50_LONG TOKYO_R50_SHORT TOKYO_R30_DIR TOKYO_R30_LONG TOKYO_R30_SHORT TOKYO_LAND CMA_LAT CMA_LON CMA_CAT CMA_WIND CMA_PRES HKO_LAT HKO_LON HKO_CAT HKO_WIND HKO_PRES NEWDELHI_LAT NEWDELHI_LON NEWDELHI_GRADE NEWDELHI_WIND NEWDELHI_PRES NEWDELHI_CI NEWDELHI_DP NEWDELHI_POCI REUNION_LAT REUNION_LON REUNION_TYPE REUNION_WIND REUNION_PRES REUNION_TNUM REUNION_CI REUNION_RMW REUNION_R34_NE REUNION_R34_SE REUNION_R34_SW REUNION_R34_NW REUNION_R50_NE REUNION_R50_SE REUNION_R50_SW REUNION_R50_NW REUNION_R64_NE REUNION_R64_SE REUNION_R64_SW REUNION_R64_NW BOM_LAT BOM_LON BOM_TYPE BOM_WIND BOM_PRES BOM_TNUM BOM_CI BOM_RMW BOM_R34_NE BOM_R34_SE BOM_R34_SW BOM_R34_NW BOM_R50_NE BOM_R50_SE BOM_R50_SW BOM_R50_NW BOM_R64_NE BOM_R64_SE BOM_R64_SW BOM_R64_NW BOM_ROCI BOM_POCI BOM_EYE BOM_POS_METHOD BOM_PRES_METHOD NADI_LAT NADI_LON NADI_CAT NADI_WIND NADI_PRES WELLINGTON_LAT WELLINGTON_LON WELLINGTON_WIND WELLINGTON_PRES DS824_LAT DS824_LON DS824_STAGE DS824_WIND DS824_PRES TD9636_LAT TD9636_LON TD9636_STAGE TD9636_WIND TD9636_PRES TD9635_LAT TD9635_LON TD9635_WIND TD9635_PRES TD9635_ROCI NEUMANN_LAT NEUMANN_LON NEUMANN_CLASS NEUMANN_WIND NEUMANN_PRES MLC_LAT MLC_LON MLC_CLASS MLC_WIND MLC_PRES USA_GUST BOM_GUST BOM_GUST_PER REUNION_GUST REUNION_GUST_PER USA_SEAHGT USA_SEARAD_NE USA_SEARAD_SE USA_SEARAD_SW USA_SEARAD_NW STORM_SPEED STORM_DIR
1926339N09130 1926 61 WP MM NOT_NAMED 1926-12-05 10:00:00 NR 9.50000 130.000 main 414 373 __________O___ -1 9.50000 130.000 7 12 287
1926339N09130 1926 61 WP MM NOT_NAMED 1926-12-05 12:00:00 NR 9.61787 129.611 main 373 314 __________P___ -1 9.61787 129.611 7 12 288
1926339N09130 1926 61 WP MM NOT_NAMED 1926-12-05 15:00:00 NR 9.80003 129.043 main 314 267 __________P___ -1 9.80003 129.043 7 12 289
1926339N09130 1926 61 WP MM NOT_NAMED 1926-12-05 18:00:00 NR 9.99713 128.511 main 267 227 __________P___ -1 9.99713 128.511 7 11 293
1926339N09130 1926 61 WP MM NOT_NAMED 1926-12-05 21:00:00 NR 10.2189 128.040 main 227 223 __________P___ -1 10.2189 128.040 7 10 297
1926339N09130 1926 61 WP MM NOT_NAMED 1926-12-05 22:00:00 NR 10.3000 127.900 main 223 204 __________O___ -1 10.3000 127.900 7 9 303
1926339N09130 1926 61 WP MM NOT_NAMED 1926-12-06 00:00:00 NR 10.4742 127.649 main 204 165 __________P___ -1 10.4742 127.649 7 9 310
1926339N09130 1926 61 WP MM NOT_NAMED 1926-12-06 03:00:00 NR 10.7610 127.335 main 165 142 __________P___ -1 10.7610 127.335 7 8 317
1926339N09130 1926 61 WP MM NOT_NAMED 1926-12-06 06:00:00 NR 11.0700 127.081 main 142 124 __________P___ -1 11.0700 127.081 7 8 324
1926339N09130 1926 61 WP MM NOT_NAMED 1926-12-06 09:00:00 NR 11.3916 126.866 main 128 117 __________P___ -1 11.3916 126.866 7 8 328
1926339N09130 1926 61 WP MM NOT_NAMED 1926-12-06 10:00:00 NR 11.5000 126.800 main 122 114 __________O___ -1 11.5000 126.800 7 8 325
1926339N09130 1926 61 WP MM NOT_NAMED 1926-12-06 12:00:00 NR 11.7083 126.640 main 114 100 __________P___ -1 11.7083 126.640 7 8 325
1926339N09130 1926 61 WP MM NOT_NAMED 1926-12-06 15:00:00 NR 12.0270 126.424 main 100 79 __________P___ -1 12.0270 126.424 7 8 329
1926339N09130 1926 61 WP MM NOT_NAMED 1926-12-06 18:00:00 NR 12.3533 126.249 main 79 79 __________P___ -1 12.3533 126.249 7 7 336
1926339N09130 1926 61 WP MM NOT_NAMED 1926-12-06 21:00:00 NR 12.6871 126.127 main 85 85 __________P___ -1 12.6871 126.127 7 7 343
1926339N09130 1926 61 WP MM NOT_NAMED 1926-12-06 22:00:00 NR 12.8000 126.100 main 93 93 __________O___ -1 12.8000 126.100 7 7 348
1926339N09130 1926 61 WP MM NOT_NAMED 1926-12-07 00:00:00 NR 13.0328 126.050 main 101 109 __________P___ -1 13.0328 126.050 7 7 354
1926339N09130 1926 61 WP MM NOT_NAMED 1926-12-07 03:00:00 NR 13.3884 126.025 main 132 132 __________P___ -1 13.3884 126.025 7 7 2
1926339N09130 1926 61 WP MM NOT_NAMED 1926-12-07 06:00:00 NR 13.7435 126.060 main 166 175 __________P___ -1 13.7435 126.060 7 7 10
1926339N09130 1926 61 WP MM NOT_NAMED 1926-12-07 09:00:00 NR 14.0887 126.155 main 195 195 __________P___ -1 14.0887 126.155 7 7 17
1926339N09130 1926 61 WP MM NOT_NAMED 1926-12-07 10:00:00 NR 14.2000 126.200 main 197 197 __________O___ -1 14.2000 126.200 7 7 24
1926339N09130 1926 61 WP MM NOT_NAMED 1926-12-07 12:00:00 NR 14.4154 126.309 main 212 212 __________P___ -1 14.4154 126.309 7 7 30
1926339N09130 1926 61 WP MM NOT_NAMED 1926-12-07 15:00:00 NR 14.7234 126.513 main 243 243 __________P___ -1 14.7234 126.513 7 7 35
1926339N09130 1926 61 WP MM NOT_NAMED 1926-12-07 18:00:00 NR 15.0182 126.752 main 286 286 __________P___ -1 15.0182 126.752 7 8 40
1926339N09130 1926 61 WP MM NOT_NAMED 1926-12-07 21:00:00 NR 15.3051 127.011 main 320 320 __________P___ -1 15.3051 127.011 7 8 41
1926339N09130 1926 61 WP MM NOT_NAMED 1926-12-07 22:00:00 NR 15.4000 127.100 main 335 __________O___ -1 15.4000 127.100 7 8 44

Digital Typhoon Data and Search

About IBTrACS Database

This database is a web-friendly format of International Best Track Archive for Climate Stewardship (IBTrACS), a global best track data archive curated by NOAA dating back to 1842.

Updated: 2021-12-06